createdAt,value
2019-01-04T00:00:22.574Z,3.10
2019-01-04T00:02:51.753Z,2.45
2019-01-04T00:05:20.835Z,2.60
2019-01-04T00:07:49.891Z,3.33
2019-01-04T00:10:18.971Z,2.55
2019-01-04T00:12:48.039Z,2.90
2019-01-04T00:15:17.116Z,2.22
2019-01-04T00:17:46.172Z,3.02
2019-01-04T00:20:15.218Z,2.40
2019-01-04T00:22:44.260Z,2.58
2019-01-04T00:25:13.383Z,3.30
2019-01-04T00:27:43.503Z,2.90
2019-01-04T00:30:12.863Z,2.75
2019-01-04T00:32:41.981Z,2.83
2019-01-04T00:35:11.044Z,2.62
2019-01-04T00:37:40.088Z,2.67
2019-01-04T00:40:09.495Z,2.92
2019-01-04T00:42:38.552Z,2.70
2019-01-04T00:45:10.981Z,2.70
2019-01-04T00:47:40.174Z,2.45
2019-01-04T00:50:09.480Z,2.72
2019-01-04T00:52:38.627Z,2.65
2019-01-04T00:55:41.765Z,1.80
2019-01-04T00:58:37.489Z,2.75
2019-01-04T01:02:08.698Z,2.50
2019-01-04T01:05:13.099Z,2.17
2019-01-04T01:08:13.875Z,3.08
2019-01-04T01:11:26.924Z,2.60
2019-01-04T01:14:37.142Z,2.37
2019-01-04T01:17:41.841Z,3.27
2019-01-04T01:20:52.329Z,2.83
2019-01-04T01:24:03.495Z,2.35
2019-01-04T01:27:05.992Z,2.70
2019-01-04T01:30:14.949Z,2.70
2019-01-04T01:32:59.090Z,2.37
2019-01-04T01:35:44.105Z,2.40
2019-01-04T01:38:53.107Z,2.95
2019-01-04T01:41:47.569Z,2.15
2019-01-04T01:44:43.400Z,2.35
2019-01-04T01:47:20.507Z,2.60
2019-01-04T01:50:14.930Z,2.65
2019-01-04T01:52:46.736Z,2.00
2019-01-04T01:55:15.839Z,1.77
2019-01-04T01:57:44.975Z,2.12
2019-01-04T02:00:14.097Z,2.10
2019-01-04T02:02:43.153Z,1.80
2019-01-04T02:05:12.215Z,1.52
2019-01-04T02:07:41.281Z,1.20
2019-01-04T02:10:10.422Z,1.75
2019-01-04T02:12:39.494Z,1.30
2019-01-04T02:15:08.803Z,1.27
2019-01-04T02:17:37.917Z,1.40
2019-01-04T02:20:07.337Z,1.57
2019-01-04T02:22:36.335Z,1.75
2019-01-04T02:25:05.911Z,1.55
2019-01-04T02:27:34.893Z,1.52
2019-01-04T02:30:04.672Z,1.47
2019-01-04T02:32:33.702Z,1.60
2019-01-04T02:35:02.709Z,1.75
2019-01-04T02:37:31.711Z,1.67
2019-01-04T02:40:00.801Z,1.95
2019-01-04T02:42:29.934Z,1.92
2019-01-04T02:44:59.048Z,1.87
2019-01-04T02:47:28.118Z,2.35
2019-01-04T02:49:57.103Z,1.67
2019-01-04T02:52:26.194Z,1.65
2019-01-04T02:54:55.207Z,1.70
2019-01-04T02:57:24.206Z,1.30
2019-01-04T02:59:53.287Z,1.07
2019-01-04T03:02:23.371Z,1.98
2019-01-04T03:04:52.444Z,1.05
2019-01-04T03:07:21.509Z,1.30
2019-01-04T03:09:50.564Z,1.27
2019-01-04T03:12:19.780Z,1.47
2019-01-04T03:14:48.914Z,0.88
2019-01-04T03:17:18.150Z,1.00
2019-01-04T03:19:47.366Z,1.42
2019-01-04T03:22:16.460Z,0.90
2019-01-04T03:24:45.568Z,0.68
2019-01-04T03:27:20.488Z,1.70
2019-01-04T03:29:49.504Z,1.00
2019-01-04T03:32:18.401Z,1.30
2019-01-04T03:34:47.384Z,0.95
2019-01-04T03:37:16.309Z,1.15
2019-01-04T03:39:45.350Z,0.85
2019-01-04T03:42:14.450Z,1.00
2019-01-04T03:44:43.531Z,1.05
2019-01-04T03:47:12.656Z,1.10
2019-01-04T03:49:41.830Z,1.20
2019-01-04T03:52:10.854Z,1.10
2019-01-04T03:54:39.969Z,0.90
2019-01-04T03:57:09.074Z,0.90
2019-01-04T03:59:38.124Z,1.00
2019-01-04T04:02:07.178Z,1.20
2019-01-04T04:04:36.263Z,1.20
2019-01-04T04:07:05.333Z,1.10
2019-01-04T04:09:43.864Z,1.00
2019-01-04T04:12:12.973Z,1.15
2019-01-04T04:14:42.093Z,1.45
2019-01-04T04:17:11.233Z,2.25
2019-01-04T04:19:40.352Z,1.70
2019-01-04T04:22:09.472Z,1.60
2019-01-04T04:24:38.582Z,1.75
2019-01-04T04:27:10.134Z,1.80
2019-01-04T04:29:39.292Z,1.42
2019-01-04T04:32:08.379Z,1.15
2019-01-04T04:34:37.721Z,1.50
2019-01-04T04:37:06.698Z,1.35
2019-01-04T04:39:35.604Z,1.10
2019-01-04T04:42:04.660Z,1.20
2019-01-04T04:44:34.820Z,1.00
2019-01-04T04:47:04.917Z,1.20
2019-01-04T04:49:33.904Z,1.55
2019-01-04T04:52:02.946Z,1.40
2019-01-04T04:54:32.275Z,1.62
2019-01-04T04:57:01.433Z,1.22
2019-01-04T04:59:30.443Z,1.27
2019-01-04T05:01:59.456Z,1.30
2019-01-04T05:04:28.504Z,2.10
2019-01-04T05:06:57.602Z,1.62
2019-01-04T05:09:26.611Z,1.80
2019-01-04T05:11:55.609Z,1.75
2019-01-04T05:14:24.686Z,1.92
2019-01-04T05:16:53.649Z,1.52
2019-01-04T05:19:22.720Z,1.60
2019-01-04T05:21:51.845Z,1.60
2019-01-04T05:24:21.066Z,1.32
2019-01-04T05:26:50.196Z,2.45
2019-01-04T05:29:19.178Z,1.65
2019-01-04T05:31:48.257Z,2.10
2019-01-04T05:34:17.314Z,2.00
2019-01-04T05:37:04.914Z,1.90
2019-01-04T05:39:33.994Z,1.90
2019-01-04T05:42:03.120Z,1.70
2019-01-04T05:44:32.298Z,1.70
2019-01-04T05:47:01.404Z,1.95
2019-01-04T05:49:31.584Z,1.98
2019-01-04T05:52:00.711Z,1.55
2019-01-04T05:54:29.791Z,2.33
2019-01-04T05:56:58.933Z,2.02
2019-01-04T05:59:28.029Z,2.05
2019-01-04T06:01:57.165Z,2.83
2019-01-04T06:04:26.293Z,2.40
2019-01-04T06:06:55.524Z,1.87
2019-01-04T06:09:27.635Z,2.17
2019-01-04T06:11:56.756Z,2.12
2019-01-04T06:14:25.900Z,2.42
2019-01-04T06:16:55.042Z,2.05
2019-01-04T06:19:24.160Z,2.40
2019-01-04T06:21:53.269Z,2.65
2019-01-04T06:24:22.454Z,2.85
2019-01-04T06:26:52.124Z,2.50
2019-01-04T06:29:21.367Z,2.52
2019-01-04T06:31:50.465Z,2.87
2019-01-04T06:34:19.581Z,2.55
2019-01-04T06:36:48.806Z,2.95
2019-01-04T06:39:17.899Z,3.05
2019-01-04T06:41:47.049Z,3.15
2019-01-04T06:44:16.166Z,3.55
2019-01-04T06:47:15.700Z,3.37
2019-01-04T06:49:45.139Z,3.37
2019-01-04T06:52:14.407Z,3.80
2019-01-04T06:55:40.099Z,4.70
2019-01-04T06:58:09.207Z,4.55
2019-01-04T07:00:39.380Z,3.33
2019-01-04T07:03:08.386Z,4.17
2019-01-04T07:05:37.388Z,5.72
2019-01-04T07:08:06.355Z,4.62
2019-01-04T07:10:35.416Z,4.78
2019-01-04T07:13:04.569Z,4.72
2019-01-04T07:15:33.580Z,4.20
2019-01-04T07:18:02.607Z,5.85
2019-01-04T07:20:31.660Z,5.58
2019-01-04T07:23:00.713Z,5.80
2019-01-04T07:25:29.844Z,5.97
2019-01-04T07:28:00.359Z,6.45
2019-01-04T07:30:29.433Z,5.53
2019-01-04T07:32:58.509Z,7.58
2019-01-04T07:35:27.619Z,7.03
2019-01-04T07:37:56.699Z,6.95
2019-01-04T07:40:25.755Z,9.58
2019-01-04T07:42:54.792Z,11.45
2019-01-04T07:45:26.619Z,10.75
2019-01-04T07:47:55.722Z,13.00
2019-01-04T07:50:24.760Z,14.80
2019-01-04T07:52:55.290Z,16.60
2019-01-04T07:55:24.350Z,13.93
2019-01-04T07:57:53.458Z,17.40
2019-01-04T08:00:22.909Z,17.15
2019-01-04T08:02:53.469Z,17.27
2019-01-04T08:05:26.844Z,18.10
2019-01-04T08:07:55.880Z,17.80
2019-01-04T08:10:24.997Z,17.23
2019-01-04T08:12:53.986Z,14.90
2019-01-04T08:15:23.075Z,16.62
2019-01-04T08:17:52.261Z,16.93
2019-01-04T08:20:21.429Z,17.48
2019-01-04T08:22:50.480Z,15.32
2019-01-04T08:25:19.540Z,15.72
2019-01-04T08:27:51.592Z,16.93
2019-01-04T08:30:21.348Z,15.18
2019-01-04T08:32:50.366Z,19.35
2019-01-04T08:35:19.654Z,17.73
2019-01-04T08:37:48.804Z,17.00
2019-01-04T08:40:20.713Z,15.72
2019-01-04T08:42:49.994Z,16.75
2019-01-04T08:45:19.260Z,16.35
2019-01-04T08:47:48.560Z,17.10
2019-01-04T08:50:17.643Z,16.67
2019-01-04T08:52:46.730Z,16.52
2019-01-04T08:55:27.673Z,17.15
2019-01-04T08:57:56.775Z,16.07
2019-01-04T09:00:25.954Z,16.67
2019-01-04T09:02:55.141Z,17.73
2019-01-04T09:05:25.567Z,17.73
2019-01-04T09:07:54.711Z,19.65
2019-01-04T09:10:23.828Z,18.35
2019-01-04T09:12:52.817Z,18.32
2019-01-04T09:15:21.900Z,17.82
2019-01-04T09:17:50.966Z,18.57
2019-01-04T09:20:20.043Z,21.52
2019-01-04T09:22:49.049Z,21.05
2019-01-04T09:25:18.146Z,23.10
2019-01-04T09:27:48.277Z,20.95
2019-01-04T09:30:17.447Z,19.60
2019-01-04T09:32:46.605Z,20.75
2019-01-04T09:35:15.665Z,21.65
2019-01-04T09:37:45.357Z,19.27
2019-01-04T09:40:15.336Z,17.67
2019-01-04T09:42:47.083Z,18.85
2019-01-04T09:45:16.739Z,17.87
2019-01-04T09:47:46.641Z,18.60
2019-01-04T09:50:16.930Z,17.52
2019-01-04T09:52:47.109Z,16.48
2019-01-04T09:55:16.762Z,15.28
2019-01-04T09:57:46.499Z,14.80
2019-01-04T10:00:19.119Z,15.85
2019-01-04T10:02:48.183Z,14.73
2019-01-04T10:05:17.267Z,13.68
2019-01-04T10:07:46.419Z,12.75
2019-01-04T10:10:15.567Z,12.98
2019-01-04T10:12:44.633Z,12.93
2019-01-04T10:15:15.892Z,10.18
2019-01-04T10:17:44.942Z,10.05
2019-01-04T10:20:14.068Z,9.48
2019-01-04T10:22:44.287Z,9.13
2019-01-04T10:25:13.944Z,8.38
2019-01-04T10:27:46.780Z,5.72
2019-01-04T10:30:27.579Z,4.42
2019-01-04T10:32:57.033Z,3.30
2019-01-04T10:35:26.106Z,3.17
2019-01-04T10:37:55.370Z,3.27
2019-01-04T10:40:25.555Z,2.98
2019-01-04T10:42:54.855Z,3.27
2019-01-04T10:45:24.154Z,3.02
2019-01-04T10:47:53.721Z,3.35
2019-01-04T10:50:22.965Z,2.42
2019-01-04T10:52:52.207Z,3.33
2019-01-04T10:55:21.449Z,1.87
2019-01-04T10:57:50.928Z,2.85
2019-01-04T11:00:20.397Z,2.70
2019-01-04T11:02:49.493Z,2.80
2019-01-04T11:05:18.676Z,3.52
2019-01-04T11:07:47.706Z,3.05
2019-01-04T11:10:16.788Z,2.70
2019-01-04T11:12:45.828Z,3.00
2019-01-04T11:15:14.831Z,3.90
2019-01-04T11:17:43.879Z,4.25
2019-01-04T11:20:48.808Z,4.12
2019-01-04T11:23:58.882Z,4.33
2019-01-04T11:26:35.267Z,3.70
2019-01-04T11:29:16.344Z,5.20
2019-01-04T11:32:13.783Z,5.08
2019-01-04T11:35:26.937Z,4.83
2019-01-04T11:38:07.620Z,5.53
2019-01-04T11:41:20.714Z,4.85
2019-01-04T11:44:16.686Z,5.50
2019-01-04T11:47:25.924Z,5.92
2019-01-04T11:50:12.917Z,6.45
2019-01-04T11:52:47.697Z,6.62
2019-01-04T11:55:16.756Z,6.20
2019-01-04T11:57:45.783Z,7.58
2019-01-04T12:00:14.964Z,7.30
2019-01-04T12:02:45.595Z,8.08
2019-01-04T12:05:16.424Z,9.03
2019-01-04T12:07:45.508Z,7.75
2019-01-04T12:10:14.680Z,7.03
2019-01-04T12:12:43.757Z,7.40
2019-01-04T12:15:12.825Z,7.53
2019-01-04T12:17:41.931Z,6.25
2019-01-04T12:20:11.058Z,6.35
2019-01-04T12:22:40.090Z,5.42
2019-01-04T12:25:09.166Z,5.33
2019-01-04T12:27:38.121Z,6.20
2019-01-04T12:30:08.233Z,6.45
2019-01-04T12:32:37.236Z,6.22
2019-01-04T12:35:06.331Z,7.53
2019-01-04T12:37:35.363Z,6.65
2019-01-04T12:40:04.465Z,8.13
2019-01-04T12:42:33.629Z,9.08
2019-01-04T12:45:02.782Z,10.75
2019-01-04T12:47:31.932Z,10.98
2019-01-04T12:50:01.007Z,10.80
2019-01-04T12:52:30.134Z,11.10
2019-01-04T12:54:59.597Z,11.45
2019-01-04T12:57:29.012Z,12.28
2019-01-04T12:59:58.378Z,13.00
2019-01-04T13:02:27.574Z,13.62
2019-01-04T13:04:56.628Z,12.98
2019-01-04T13:07:25.835Z,11.55
2019-01-04T13:09:57.795Z,11.18
2019-01-04T13:12:26.931Z,11.48
2019-01-04T13:14:55.995Z,11.25
2019-01-04T13:17:25.083Z,10.15
2019-01-04T13:19:54.417Z,10.55
2019-01-04T13:22:23.561Z,8.50
2019-01-04T13:24:52.550Z,9.13
2019-01-04T13:27:22.688Z,9.30
2019-01-04T13:29:51.887Z,8.80
2019-01-04T13:32:21.007Z,8.60
2019-01-04T13:34:50.212Z,9.03
2019-01-04T13:37:19.452Z,7.75
2019-01-04T13:39:48.872Z,7.83
2019-01-04T13:42:17.853Z,8.73
2019-01-04T13:44:46.921Z,7.87
2019-01-04T13:47:15.990Z,7.80
2019-01-04T13:49:45.059Z,6.40
2019-01-04T13:52:14.243Z,7.70
2019-01-04T13:54:43.748Z,6.03
2019-01-04T13:57:12.998Z,8.23
2019-01-04T13:59:42.209Z,5.95
2019-01-04T14:02:11.405Z,6.03
2019-01-04T14:04:40.619Z,5.33
2019-01-04T14:07:09.792Z,5.53
2019-01-04T14:09:41.672Z,5.72
2019-01-04T14:12:10.715Z,4.58
2019-01-04T14:14:39.776Z,5.67
2019-01-04T14:17:08.922Z,7.03
2019-01-04T14:19:38.086Z,7.50
2019-01-04T14:22:07.238Z,8.20
2019-01-04T14:24:36.457Z,9.70
2019-01-04T14:27:05.475Z,10.45
2019-01-04T14:29:35.010Z,11.15
2019-01-04T14:32:04.131Z,11.88
2019-01-04T14:34:33.261Z,11.97
2019-01-04T14:37:19.053Z,11.97
2019-01-04T14:39:48.265Z,10.82
2019-01-04T14:42:17.451Z,11.20
2019-01-04T14:44:46.512Z,10.50
2019-01-04T14:47:15.638Z,9.53
2019-01-04T14:49:44.748Z,9.58
2019-01-04T14:52:14.136Z,8.35
2019-01-04T14:54:43.596Z,6.60
2019-01-04T14:57:12.910Z,5.92
2019-01-04T14:59:42.295Z,5.10
2019-01-04T15:02:11.545Z,5.90
2019-01-04T15:04:40.775Z,5.15
2019-01-04T15:07:10.320Z,5.65
2019-01-04T15:09:43.166Z,4.90
2019-01-04T15:12:12.336Z,5.80
2019-01-04T15:14:41.462Z,4.97
2019-01-04T15:17:10.654Z,5.17
2019-01-04T15:19:39.834Z,4.85
2019-01-04T15:22:08.985Z,5.55
2019-01-04T15:24:38.177Z,5.22
2019-01-04T15:27:08.465Z,4.70
2019-01-04T15:29:37.704Z,5.45
2019-01-04T15:32:06.873Z,5.30
2019-01-04T15:34:36.264Z,4.47
2019-01-04T15:37:05.521Z,4.92
2019-01-04T15:39:34.774Z,4.72
2019-01-04T15:42:03.854Z,4.28
2019-01-04T15:44:33.028Z,4.25
2019-01-04T15:47:03.270Z,4.55
2019-01-04T15:49:32.380Z,4.85
2019-01-04T15:52:01.417Z,5.00
2019-01-04T15:54:30.727Z,5.05
2019-01-04T15:56:59.847Z,4.33
2019-01-04T15:59:28.937Z,5.03
2019-01-04T16:01:58.081Z,3.92
2019-01-04T16:04:27.182Z,4.40
2019-01-04T16:06:56.233Z,4.75
2019-01-04T16:09:25.298Z,4.37
2019-01-04T16:11:54.358Z,4.03
2019-01-04T16:14:26.224Z,4.03
2019-01-04T16:16:55.407Z,4.10
2019-01-04T16:19:24.494Z,4.60
2019-01-04T16:21:53.650Z,4.10
2019-01-04T16:24:22.682Z,4.30
2019-01-04T16:26:51.817Z,4.58
2019-01-04T16:29:20.839Z,4.33
2019-01-04T16:31:49.905Z,4.78
2019-01-04T16:34:18.965Z,4.67
2019-01-04T16:36:48.391Z,5.15
2019-01-04T16:39:17.828Z,5.12
2019-01-04T16:41:47.227Z,5.15
2019-01-04T16:44:16.227Z,4.87
2019-01-04T16:46:45.441Z,5.67
2019-01-04T16:49:14.520Z,6.12
2019-01-04T16:51:43.513Z,5.30
2019-01-04T16:54:12.581Z,4.90
2019-01-04T16:56:41.906Z,6.05
2019-01-04T16:59:11.232Z,5.20
2019-01-04T17:01:40.485Z,5.08
2019-01-04T17:04:09.602Z,6.60
2019-01-04T17:06:38.645Z,4.60
2019-01-04T17:09:11.655Z,4.97
2019-01-04T17:11:40.722Z,5.50
2019-01-04T17:14:09.888Z,4.67
2019-01-04T17:16:38.953Z,5.17
2019-01-04T17:19:10.142Z,4.50
2019-01-04T17:21:39.293Z,4.35
2019-01-04T17:24:08.325Z,5.33
2019-01-04T17:26:37.562Z,5.90
2019-01-04T17:29:06.768Z,5.15
2019-01-04T17:31:35.993Z,5.37
2019-01-04T17:34:05.112Z,6.17
2019-01-04T17:36:34.351Z,4.62
2019-01-04T17:39:04.312Z,5.80
2019-01-04T17:41:33.382Z,4.25
2019-01-04T17:44:02.432Z,4.92
2019-01-04T17:46:31.491Z,5.37
2019-01-04T17:49:00.583Z,4.25
2019-01-04T17:51:29.578Z,5.05
2019-01-04T17:53:58.693Z,5.10
2019-01-04T17:56:27.773Z,4.40
2019-01-04T17:58:56.749Z,4.60
2019-01-04T18:01:25.823Z,4.87
2019-01-04T18:03:54.957Z,5.08
2019-01-04T18:06:24.023Z,5.17
2019-01-04T18:08:53.135Z,4.65
2019-01-04T18:11:22.194Z,5.55
2019-01-04T18:13:51.261Z,5.83
2019-01-04T18:16:20.377Z,5.97
2019-01-04T18:18:52.779Z,6.12
2019-01-04T18:21:21.870Z,7.42
2019-01-04T18:23:50.903Z,5.97
2019-01-04T18:26:24.372Z,7.25
2019-01-04T18:28:50.666Z,6.83
2019-01-04T18:31:19.700Z,7.40
2019-01-04T18:33:48.794Z,7.67
2019-01-04T18:36:23.719Z,6.15
2019-01-04T18:38:52.676Z,8.40
2019-01-04T18:41:22.601Z,6.87
2019-01-04T18:43:51.768Z,7.80
2019-01-04T18:46:20.849Z,6.85
2019-01-04T18:48:49.837Z,6.25
2019-01-04T18:51:18.941Z,7.35
2019-01-04T18:53:48.007Z,7.50
2019-01-04T18:56:18.182Z,7.75
2019-01-04T18:58:47.317Z,7.47
2019-01-04T19:01:16.498Z,6.70
2019-01-04T19:03:45.583Z,6.15
2019-01-04T19:06:14.646Z,5.80
2019-01-04T19:08:44.743Z,7.05
2019-01-04T19:11:14.200Z,5.35
2019-01-04T19:13:43.248Z,5.67
2019-01-04T19:16:12.278Z,5.03
2019-01-04T19:18:43.151Z,4.53
2019-01-04T19:21:12.142Z,4.12
2019-01-04T19:23:41.182Z,4.45
2019-01-04T19:26:10.271Z,4.92
2019-01-04T19:28:39.260Z,5.08
2019-01-04T19:31:08.467Z,4.15
2019-01-04T19:33:37.602Z,4.58
2019-01-04T19:36:09.531Z,4.45
2019-01-04T19:38:38.548Z,3.72
2019-01-04T19:41:07.610Z,4.72
2019-01-04T19:43:36.711Z,3.65
2019-01-04T19:46:05.772Z,3.80
2019-01-04T19:48:34.917Z,3.85
2019-01-04T19:51:04.020Z,4.20
2019-01-04T19:53:33.030Z,3.37
2019-01-04T19:56:02.020Z,3.35
2019-01-04T19:58:31.090Z,3.92
2019-01-04T20:01:01.289Z,3.55
2019-01-04T20:03:30.435Z,4.28
2019-01-04T20:07:26.152Z,3.37
2019-01-04T20:10:57.440Z,3.60
2019-01-04T20:14:33.309Z,4.55
2019-01-04T20:17:19.886Z,4.10
2019-01-04T20:20:22.248Z,4.03
2019-01-04T20:23:08.964Z,4.75
2019-01-04T20:26:15.241Z,3.80
2019-01-04T20:29:01.664Z,4.33
2019-01-04T20:31:49.801Z,4.03
2019-01-04T20:34:46.526Z,3.62
2019-01-04T20:37:49.441Z,3.37
2019-01-04T20:40:53.252Z,3.52
2019-01-04T20:43:40.974Z,4.83
2019-01-04T20:46:47.090Z,4.35
2019-01-04T20:49:47.303Z,3.60
2019-01-04T20:52:31.231Z,2.70
2019-01-04T20:55:31.162Z,3.08
2019-01-04T20:58:25.222Z,3.05
2019-01-04T21:01:14.491Z,2.90
2019-01-04T21:04:04.515Z,3.12
2019-01-04T21:06:43.652Z,3.12
2019-01-04T21:09:40.663Z,3.12
2019-01-04T21:12:28.780Z,3.08
2019-01-04T21:15:22.749Z,3.47
2019-01-04T21:18:13.710Z,2.75
2019-01-04T21:20:53.928Z,2.98
2019-01-04T21:23:44.634Z,2.65
2019-01-04T21:26:31.215Z,3.33
2019-01-04T21:29:37.409Z,3.15
2019-01-04T21:32:23.951Z,2.67
2019-01-04T21:35:10.518Z,2.75
2019-01-04T21:37:50.655Z,2.42
2019-01-04T21:40:38.805Z,2.70
2019-01-04T21:43:45.079Z,3.52
2019-01-04T21:46:32.836Z,3.30
2019-01-04T21:49:33.069Z,3.15
2019-01-04T21:52:36.137Z,2.62
2019-01-04T21:55:22.696Z,3.45
2019-01-04T21:58:28.756Z,2.70
2019-01-04T22:01:18.129Z,2.90
2019-01-04T22:04:05.108Z,3.00
2019-01-04T22:06:51.587Z,2.62
2019-01-04T22:09:54.412Z,3.55
2019-01-04T22:12:37.804Z,2.67
2019-01-04T22:15:24.245Z,2.50
2019-01-04T22:18:22.193Z,2.92
2019-01-04T22:21:19.062Z,2.35
2019-01-04T22:24:05.459Z,2.37
2019-01-04T22:26:54.011Z,2.58
2019-01-04T22:29:37.474Z,2.83
2019-01-04T22:32:31.587Z,2.67
2019-01-04T22:35:13.761Z,2.80
2019-01-04T22:38:16.714Z,2.17
2019-01-04T22:41:19.618Z,2.95
2019-01-04T22:44:22.731Z,2.75
2019-01-04T22:47:15.019Z,2.75
2019-01-04T22:49:53.424Z,2.25
2019-01-04T22:52:39.906Z,2.27
2019-01-04T22:55:42.935Z,2.52
2019-01-04T22:58:40.007Z,2.98
2019-01-04T23:01:30.920Z,1.80
2019-01-04T23:04:17.850Z,1.62
2019-01-04T23:07:11.878Z,2.08
2019-01-04T23:09:58.261Z,2.62
2019-01-04T23:12:55.437Z,2.55
2019-01-04T23:15:46.610Z,2.22
2019-01-04T23:18:37.666Z,2.47
2019-01-04T23:22:03.904Z,2.55
2019-01-04T23:25:07.151Z,1.95
2019-01-04T23:27:53.508Z,2.87
2019-01-04T23:30:40.131Z,2.10
2019-01-04T23:33:30.053Z,2.37
2019-01-04T23:36:22.958Z,2.65
2019-01-04T23:39:22.763Z,2.12
2019-01-04T23:42:16.943Z,2.47
2019-01-04T23:45:03.525Z,1.80
2019-01-04T23:47:49.605Z,2.75
2019-01-04T23:50:52.804Z,2.40
2019-01-04T23:53:39.458Z,2.92
2019-01-04T23:56:18.499Z,2.22
2019-01-04T23:59:02.743Z,1.95
